HRYR/KGL METAR and TAF weather

Enter ICAO airport designator
Station Type Date Time Source
HRYR METAR 2018/01/19 15:30 UTC NOAA

HRYR 191530Z 10005KT 9999 -TSRA FEW023CB BKN025025 24/15 Q1015 NOSIG


Station Type Date Time Source
HRYR Decoded METAR 2018/01/19 15:30 UTC NOAA

Kigali, Rwanda (HRYR) 01-58S 030-07E 1497M
Jan 19, 2018 - 10:30 AM EST / 2018.01.19 1530 UTC
Wind: from the E (100 degrees) at 6 MPH (5 KT):0
Visibility: greater than 7 mile(s):0
Sky conditions: mostly cloudy
Weather: light rain with thunder; Cumulonimbus clouds observed
Temperature: 75 F (24 C)
Dew Point: 59 F (15 C)
Relative Humidity: 57%
Pressure (altimeter): 29.97 in. Hg (1015 hPa)
ob: HRYR 191530Z 10005KT 9999 -TSRA FEW023CB BKN025025 24/15 Q1015 NOSIG
cycle: 15

Station Type Date Time Source
HRYR TAF 2018/01/19 18:15 UTC NOAA

TAF TAF HRYR 191700Z 1918/2024 18005KT 9999 TS FEW023CB BKN025
FM192100 32004KT SCT025 SCT100
BECMG 2002/2005 VRB03KT 3000 BR FEW015 SCT023
FM200900 15006KT 9999 BKN024
TEMPO 2013/2018 09010G20KT -TSRA FEW023CB BKN025
FM202100 33005KT SCT025 SCT00


Example: see airport list